sensor_id;sensor_type;location;lat;lon;timestamp;pressure;altitude;pressure_sealevel;temperature;humidity
36726;BME280;44936;52.086;5.150;2023-11-19T00:02:21;101483.88;;;14.17;100.00
36726;BME280;44936;52.086;5.150;2023-11-19T00:04:47;101501.41;;;14.35;100.00
36726;BME280;44936;52.086;5.150;2023-11-19T00:07:12;101506.69;;;14.37;100.00
36726;BME280;44936;52.086;5.150;2023-11-19T00:09:39;101514.59;;;14.38;100.00
36726;BME280;44936;52.086;5.150;2023-11-19T00:12:06;101548.94;;;14.48;100.00
36726;BME280;44936;52.086;5.150;2023-11-19T00:14:32;101545.41;;;14.58;100.00
36726;BME280;44936;52.086;5.150;2023-11-19T00:16:58;101534.84;;;14.52;100.00
36726;BME280;44936;52.086;5.150;2023-11-19T00:19:23;101504.03;;;14.38;100.00
36726;BME280;44936;52.086;5.150;2023-11-19T00:21:49;101512.88;;;14.50;100.00
36726;BME280;44936;52.086;5.150;2023-11-19T00:24:14;101470.66;;;14.22;100.00
36726;BME280;44936;52.086;5.150;2023-11-19T00:26:49;101486.50;;;14.24;100.00
36726;BME280;44936;52.086;5.150;2023-11-19T00:29:15;101554.22;;;14.52;100.00
36726;BME280;44936;52.086;5.150;2023-11-19T00:31:40;101544.53;;;14.60;100.00
36726;BME280;44936;52.086;5.150;2023-11-19T00:34:05;101515.50;;;14.54;100.00
36726;BME280;44936;52.086;5.150;2023-11-19T00:36:38;101503.19;;;14.45;100.00
36726;BME280;44936;52.086;5.150;2023-11-19T00:39:03;101520.75;;;14.56;100.00
36726;BME280;44936;52.086;5.150;2023-11-19T00:41:29;101511.03;;;14.73;100.00
36726;BME280;44936;52.086;5.150;2023-11-19T00:43:56;101528.63;;;14.79;100.00
36726;BME280;44936;52.086;5.150;2023-11-19T00:46:22;101503.09;;;14.74;100.00
36726;BME280;44936;52.086;5.150;2023-11-19T00:48:47;101451.25;;;14.38;100.00
36726;BME280;44936;52.086;5.150;2023-11-19T00:51:12;101484.63;;;14.70;100.00
36726;BME280;44936;52.086;5.150;2023-11-19T00:53:38;101466.22;;;14.38;100.00
36726;BME280;44936;52.086;5.150;2023-11-19T00:56:03;101463.59;;;14.45;100.00
36726;BME280;44936;52.086;5.150;2023-11-19T00:58:29;101480.31;;;14.51;100.00
36726;BME280;44936;52.086;5.150;2023-11-19T01:00:54;101469.72;;;14.40;100.00
36726;BME280;44936;52.086;5.150;2023-11-19T01:03:23;101464.53;;;14.15;100.00
36726;BME280;44936;52.086;5.150;2023-11-19T01:05:49;101505.81;;;14.30;100.00
36726;BME280;44936;52.086;5.150;2023-11-19T01:08:14;101508.47;;;14.21;100.00
36726;BME280;44936;52.086;5.150;2023-11-19T01:10:41;101481.25;;;13.99;100.00
36726;BME280;44936;52.086;5.150;2023-11-19T01:13:06;101462.78;;;14.07;100.00
36726;BME280;44936;52.086;5.150;2023-11-19T01:15:32;101484.75;;;14.24;100.00
36726;BME280;44936;52.086;5.150;2023-11-19T01:17:58;101453.97;;;14.18;100.00
36726;BME280;44936;52.086;5.150;2023-11-19T01:20:23;101467.16;;;14.15;100.00
36726;BME280;44936;52.086;5.150;2023-11-19T01:22:49;101433.75;;;14.11;100.00
36726;BME280;44936;52.086;5.150;2023-11-19T01:25:15;101431.13;;;14.04;100.00
36726;BME280;44936;52.086;5.150;2023-11-19T01:27:41;101463.63;;;14.32;100.00
36726;BME280;44936;52.086;5.150;2023-11-19T01:30:07;101475.03;;;14.43;100.00
36726;BME280;44936;52.086;5.150;2023-11-19T01:32:35;101434.63;;;14.15;100.00
36726;BME280;44936;52.086;5.150;2023-11-19T01:35:02;101469.78;;;14.25;100.00
36726;BME280;44936;52.086;5.150;2023-11-19T01:37:27;101446.06;;;14.14;100.00
36726;BME280;44936;52.086;5.150;2023-11-19T01:39:53;101483.84;;;14.27;100.00
36726;BME280;44936;52.086;5.150;2023-11-19T01:42:21;101468.91;;;14.10;100.00
36726;BME280;44936;52.086;5.150;2023-11-19T01:44:59;101455.75;;;14.01;100.00
36726;BME280;44936;52.086;5.150;2023-11-19T01:47:27;101470.69;;;13.99;100.00
36726;BME280;44936;52.086;5.150;2023-11-19T01:49:54;101483.03;;;13.89;100.00
36726;BME280;44936;52.086;5.150;2023-11-19T01:52:21;101493.53;;;13.94;100.00
36726;BME280;44936;52.086;5.150;2023-11-19T01:54:47;101454.88;;;13.82;100.00
36726;BME280;44936;52.086;5.150;2023-11-19T01:57:13;101447.84;;;13.69;100.00
36726;BME280;44936;52.086;5.150;2023-11-19T01:59:39;101481.25;;;13.84;100.00
36726;BME280;44936;52.086;5.150;2023-11-19T02:02:05;101474.22;;;13.69;100.00
36726;BME280;44936;52.086;5.150;2023-11-19T02:04:31;101468.97;;;13.80;100.00
36726;BME280;44936;52.086;5.150;2023-11-19T02:06:57;101462.81;;;13.70;100.00
36726;BME280;44936;52.086;5.150;2023-11-19T02:09:23;101438.19;;;13.41;100.00
36726;BME280;44936;52.086;5.150;2023-11-19T02:11:48;101482.13;;;13.54;100.00
36726;BME280;44936;52.086;5.150;2023-11-19T02:14:24;101479.50;;;13.78;100.00
36726;BME280;44936;52.086;5.150;2023-11-19T02:16:51;101439.94;;;13.46;100.00
36726;BME280;44936;52.086;5.150;2023-11-19T02:19:19;101461.00;;;13.40;100.00
36726;BME280;44936;52.086;5.150;2023-11-19T02:21:44;101430.19;;;13.13;100.00
36726;BME280;44936;52.086;5.150;2023-11-19T02:24:11;101475.06;;;13.41;100.00
36726;BME280;44936;52.086;5.150;2023-11-19T02:26:43;101483.84;;;13.30;100.00
36726;BME280;44936;52.086;5.150;2023-11-19T02:29:11;101497.03;;;13.46;100.00
36726;BME280;44936;52.086;5.150;2023-11-19T02:31:36;101473.31;;;13.27;100.00
36726;BME280;44936;52.086;5.150;2023-11-19T02:34:02;101448.66;;;13.12;100.00
36726;BME280;44936;52.086;5.150;2023-11-19T02:36:28;101492.63;;;13.39;100.00
36726;BME280;44936;52.086;5.150;2023-11-19T02:38:53;101440.75;;;13.15;100.00
36726;BME280;44936;52.086;5.150;2023-11-19T02:41:21;101475.06;;;13.30;100.00
36726;BME280;44936;52.086;5.150;2023-11-19T02:43:47;101466.25;;;13.20;100.00
36726;BME280;44936;52.086;5.150;2023-11-19T02:46:13;101465.38;;;13.21;100.00
36726;BME280;44936;52.086;5.150;2023-11-19T02:48:39;101482.94;;;13.33;100.00
36726;BME280;44936;52.086;5.150;2023-11-19T02:51:05;101465.44;;;13.58;100.00
36726;BME280;44936;52.086;5.150;2023-11-19T02:53:34;101482.09;;;13.42;100.00
36726;BME280;44936;52.086;5.150;2023-11-19T02:56:02;101478.56;;;13.29;100.00
36726;BME280;44936;52.086;5.150;2023-11-19T02:58:37;101468.00;;;13.21;100.00
36726;BME280;44936;52.086;5.150;2023-11-19T03:01:02;101468.88;;;13.22;100.00
36726;BME280;44936;52.086;5.150;2023-11-19T03:03:37;101461.81;;;13.13;100.00
36726;BME280;44936;52.086;5.150;2023-11-19T03:06:04;101496.13;;;13.31;100.00
36726;BME280;44936;52.086;5.150;2023-11-19T03:08:31;101478.50;;;13.14;100.00
36726;BME280;44936;52.086;5.150;2023-11-19T03:10:56;101450.38;;;13.00;100.00
36726;BME280;44936;52.086;5.150;2023-11-19T03:13:22;101442.44;;;12.87;100.00
36726;BME280;44936;52.086;5.150;2023-11-19T03:15:47;101476.75;;;13.10;100.00
36726;BME280;44936;52.086;5.150;2023-11-19T03:18:13;101438.03;;;12.81;100.00
36726;BME280;44936;52.086;5.150;2023-11-19T03:20:38;101487.22;;;12.96;100.00
36726;BME280;44936;52.086;5.150;2023-11-19T03:23:03;101440.63;;;12.73;100.00
36726;BME280;44936;52.086;5.150;2023-11-19T03:25:29;101450.25;;;12.70;100.00
36726;BME280;44936;52.086;5.150;2023-11-19T03:28:02;101495.13;;;12.97;100.00
36726;BME280;44936;52.086;5.150;2023-11-19T03:30:29;101491.56;;;12.82;100.00
36726;BME280;44936;52.086;5.150;2023-11-19T03:32:58;101439.69;;;12.62;100.00
36726;BME280;44936;52.086;5.150;2023-11-19T03:35:24;101444.09;;;12.59;100.00
36726;BME280;44936;52.086;5.150;2023-11-19T03:37:50;101469.59;;;12.78;100.00
36726;BME280;44936;52.086;5.150;2023-11-19T03:40:16;101428.25;;;12.54;100.00
36726;BME280;44936;52.086;5.150;2023-11-19T03:42:41;101406.31;;;12.46;100.00
36726;BME280;44936;52.086;5.150;2023-11-19T03:45:07;101427.41;;;12.63;100.00
36726;BME280;44936;52.086;5.150;2023-11-19T03:47:36;101484.47;;;12.68;100.00
36726;BME280;44936;52.086;5.150;2023-11-19T03:50:02;101461.63;;;12.55;100.00
36726;BME280;44936;52.086;5.150;2023-11-19T03:52:28;101493.22;;;12.61;100.00
36726;BME280;44936;52.086;5.150;2023-11-19T03:54:54;101494.97;;;12.62;100.00
36726;BME280;44936;52.086;5.150;2023-11-19T03:57:20;101483.50;;;12.53;100.00
36726;BME280;44936;52.086;5.150;2023-11-19T03:59:46;101494.94;;;12.56;100.00
36726;BME280;44936;52.086;5.150;2023-11-19T04:02:11;101487.94;;;12.61;100.00
36726;BME280;44936;52.086;5.150;2023-11-19T04:04:37;101433.47;;;12.37;100.00
36726;BME280;44936;52.086;5.150;2023-11-19T04:07:04;101487.06;;;12.59;100.00
36726;BME280;44936;52.086;5.150;2023-11-19T04:09:29;101485.25;;;12.54;100.00
36726;BME280;44936;52.086;5.150;2023-11-19T04:11:56;101472.06;;;12.37;100.00
36726;BME280;44936;52.086;5.150;2023-11-19T04:14:21;101501.97;;;12.59;100.00
36726;BME280;44936;52.086;5.150;2023-11-19T04:16:46;101500.19;;;12.52;100.00
36726;BME280;44936;52.086;5.150;2023-11-19T04:19:12;101492.19;;;12.36;100.00
36726;BME280;44936;52.086;5.150;2023-11-19T04:21:40;101516.84;;;12.49;100.00
36726;BME280;44936;52.086;5.150;2023-11-19T04:24:09;101505.41;;;12.45;100.00
36726;BME280;44936;52.086;5.150;2023-11-19T04:26:43;101506.38;;;12.60;100.00
36726;BME280;44936;52.086;5.150;2023-11-19T04:29:11;101517.72;;;12.54;100.00
36726;BME280;44936;52.086;5.150;2023-11-19T04:31:36;101493.09;;;12.43;100.00
36726;BME280;44936;52.086;5.150;2023-11-19T04:34:02;101478.16;;;12.31;100.00
36726;BME280;44936;52.086;5.150;2023-11-19T04:36:27;101508.00;;;12.41;100.00
36726;BME280;44936;52.086;5.150;2023-11-19T04:38:54;101514.25;;;12.57;100.00
36726;BME280;44936;52.086;5.150;2023-11-19T04:41:20;101457.09;;;12.31;100.00
36726;BME280;44936;52.086;5.150;2023-11-19T04:43:45;101509.75;;;12.40;100.00
36726;BME280;44936;52.086;5.150;2023-11-19T04:46:10;101503.63;;;12.41;100.00
36726;BME280;44936;52.086;5.150;2023-11-19T04:48:36;101473.75;;;12.29;100.00
36726;BME280;44936;52.086;5.150;2023-11-19T04:51:04;101455.25;;;12.15;100.00
36726;BME280;44936;52.086;5.150;2023-11-19T04:53:30;101490.44;;;12.34;100.00
36726;BME280;44936;52.086;5.150;2023-11-19T04:55:55;101483.41;;;12.30;100.00
36726;BME280;44936;52.086;5.150;2023-11-19T04:58:20;101492.19;;;12.36;100.00
36726;BME280;44936;52.086;5.150;2023-11-19T05:00:46;101485.16;;;12.32;100.00
36726;BME280;44936;52.086;5.150;2023-11-19T05:03:11;101493.00;;;12.25;100.00
36726;BME280;44936;52.086;5.150;2023-11-19T05:05:36;101498.25;;;12.22;100.00
36726;BME280;44936;52.086;5.150;2023-11-19T05:08:02;101480.66;;;12.14;100.00
36726;BME280;44936;52.086;5.150;2023-11-19T05:10:27;101506.09;;;12.17;100.00
36726;BME280;44936;52.086;5.150;2023-11-19T05:12:53;101499.09;;;12.17;100.00
36726;BME280;44936;52.086;5.150;2023-11-19T05:15:18;101520.22;;;12.31;100.00
36726;BME280;44936;52.086;5.150;2023-11-19T05:17:43;101505.28;;;12.26;100.00
36726;BME280;44936;52.086;5.150;2023-11-19T05:20:10;101511.34;;;12.18;100.00
36726;BME280;44936;52.086;5.150;2023-11-19T05:22:40;101508.78;;;12.25;100.00
36726;BME280;44936;52.086;5.150;2023-11-19T05:25:06;101513.97;;;12.11;100.00
36726;BME280;44936;52.086;5.150;2023-11-19T05:27:31;101508.66;;;12.08;100.00
36726;BME280;44936;52.086;5.150;2023-11-19T05:29:56;101480.53;;;11.93;100.00
36726;BME280;44936;52.086;5.150;2023-11-19T05:32:22;101486.47;;;11.77;100.00
36726;BME280;44936;52.086;5.150;2023-11-19T05:34:47;101473.47;;;11.92;100.00
36726;BME280;44936;52.086;5.150;2023-11-19T05:37:15;101478.66;;;11.83;100.00
36726;BME280;44936;52.086;5.150;2023-11-19T05:39:40;101499.75;;;11.89;100.00
36726;BME280;44936;52.086;5.150;2023-11-19T05:42:05;101515.59;;;12.01;100.00
36726;BME280;44936;52.086;5.150;2023-11-19T05:44:31;101457.56;;;11.75;100.00
36726;BME280;44936;52.086;5.150;2023-11-19T05:46:56;101488.34;;;11.84;100.00
36726;BME280;44936;52.086;5.150;2023-11-19T05:49:21;101503.31;;;11.99;100.00
36726;BME280;44936;52.086;5.150;2023-11-19T05:51:47;101507.84;;;12.15;100.00
36726;BME280;44936;52.086;5.150;2023-11-19T05:54:12;101472.59;;;11.88;100.00
36726;BME280;44936;52.086;5.150;2023-11-19T05:56:38;101492.88;;;12.09;100.00
36726;BME280;44936;52.086;5.150;2023-11-19T05:59:04;101506.16;;;12.23;100.00
36726;BME280;44936;52.086;5.150;2023-11-19T06:01:34;101478.84;;;12.06;100.00
36726;BME280;44936;52.086;5.150;2023-11-19T06:04:00;101455.13;;;11.95;100.00
36726;BME280;44936;52.086;5.150;2023-11-19T06:06:26;101508.72;;;12.15;100.00
36726;BME280;44936;52.086;5.150;2023-11-19T06:08:52;101490.34;;;12.20;100.00
36726;BME280;44936;52.086;5.150;2023-11-19T06:11:17;101478.84;;;12.09;100.00
36726;BME280;44936;52.086;5.150;2023-11-19T06:13:46;101481.44;;;12.01;100.00
36726;BME280;44936;52.086;5.150;2023-11-19T06:16:16;101501.69;;;12.14;100.00
36726;BME280;44936;52.086;5.150;2023-11-19T06:18:41;101465.66;;;12.00;100.00
36726;BME280;44936;52.086;5.150;2023-11-19T06:21:08;101506.91;;;12.10;100.00
36726;BME280;44936;52.086;5.150;2023-11-19T06:23:33;101447.13;;;11.81;100.00
36726;BME280;44936;52.086;5.150;2023-11-19T06:25:59;101451.50;;;11.81;100.00
36726;BME280;44936;52.086;5.150;2023-11-19T06:28:24;101463.72;;;11.77;100.00
36726;BME280;44936;52.086;5.150;2023-11-19T06:30:50;101481.41;;;11.97;100.00
36726;BME280;44936;52.086;5.150;2023-11-19T06:33:15;101492.75;;;11.88;100.00
36726;BME280;44936;52.086;5.150;2023-11-19T06:35:41;101478.72;;;11.92;100.00
36726;BME280;44936;52.086;5.150;2023-11-19T06:38:06;101496.38;;;12.05;100.00
36726;BME280;44936;52.086;5.150;2023-11-19T06:40:34;101468.25;;;11.95;100.00
36726;BME280;44936;52.086;5.150;2023-11-19T06:43:03;101474.31;;;11.85;100.00
36726;BME280;44936;52.086;5.150;2023-11-19T06:45:29;101513.03;;;12.03;100.00
36726;BME280;44936;52.086;5.150;2023-11-19T06:47:55;101481.09;;;11.61;100.00
36726;BME280;44936;52.086;5.150;2023-11-19T06:50:20;101547.94;;;11.91;100.00
36726;BME280;44936;52.086;5.150;2023-11-19T06:52:46;101518.97;;;11.82;100.00
36726;BME280;44936;52.086;5.150;2023-11-19T06:55:11;101503.94;;;11.67;100.00
36726;BME280;44936;52.086;5.150;2023-11-19T06:57:37;101503.19;;;11.82;100.00
36726;BME280;44936;52.086;5.150;2023-11-19T07:00:03;101545.44;;;12.02;100.00
36726;BME280;44936;52.086;5.150;2023-11-19T07:02:30;101517.06;;;11.67;100.00
36726;BME280;44936;52.086;5.150;2023-11-19T07:04:56;101492.47;;;11.59;100.00
36726;BME280;44936;52.086;5.150;2023-11-19T07:07:22;101502.09;;;11.60;100.00
36726;BME280;44936;52.086;5.150;2023-11-19T07:09:50;101545.44;;;12.03;100.00
36726;BME280;44936;52.086;5.150;2023-11-19T07:12:15;101488.19;;;11.73;100.00
36726;BME280;44936;52.086;5.150;2023-11-19T07:14:41;101544.56;;;12.04;100.00
36726;BME280;44936;52.086;5.150;2023-11-19T07:17:07;101549.78;;;11.98;100.00
36726;BME280;44936;52.086;5.150;2023-11-19T07:19:34;101539.25;;;11.97;100.00
36726;BME280;44936;52.086;5.150;2023-11-19T07:22:04;101556.00;;;12.09;100.00
36726;BME280;44936;52.086;5.150;2023-11-19T07:24:31;101532.31;;;12.03;100.00
36726;BME280;44936;52.086;5.150;2023-11-19T07:26:56;101558.50;;;11.94;100.00
36726;BME280;44936;52.086;5.150;2023-11-19T07:29:22;101557.66;;;11.95;100.00
36726;BME280;44936;52.086;5.150;2023-11-19T07:31:50;101541.88;;;11.97;100.00
36726;BME280;44936;52.086;5.150;2023-11-19T07:34:16;101518.06;;;11.81;100.00
36726;BME280;44936;52.086;5.150;2023-11-19T07:36:44;101517.25;;;11.84;100.00
36726;BME280;44936;52.086;5.150;2023-11-19T07:39:10;101514.78;;;12.02;100.00
36726;BME280;44936;52.086;5.150;2023-11-19T07:41:35;101550.81;;;12.18;100.00
36726;BME280;44936;52.086;5.150;2023-11-19T07:44:03;101512.16;;;12.04;100.00
36726;BME280;44936;52.086;5.150;2023-11-19T07:46:28;101535.75;;;11.98;100.00
36726;BME280;44936;52.086;5.150;2023-11-19T07:48:54;101535.06;;;12.22;100.00
36726;BME280;44936;52.086;5.150;2023-11-19T07:51:19;101568.41;;;12.26;100.00
36726;BME280;44936;52.086;5.150;2023-11-19T07:53:44;101540.34;;;12.23;100.00
36726;BME280;44936;52.086;5.150;2023-11-19T07:56:10;101500.69;;;11.96;100.00
36726;BME280;44936;52.086;5.150;2023-11-19T07:58:36;101568.47;;;12.33;100.00
36726;BME280;44936;52.086;5.150;2023-11-19T08:01:02;101536.84;;;12.26;100.00
36726;BME280;44936;52.086;5.150;2023-11-19T08:03:28;101520.16;;;12.22;100.00
36726;BME280;44936;52.086;5.150;2023-11-19T08:05:57;101550.16;;;12.50;100.00
36726;BME280;44936;52.086;5.150;2023-11-19T08:08:23;101492.19;;;12.35;100.00
36726;BME280;44936;52.086;5.150;2023-11-19T08:10:51;101543.19;;;12.57;100.00
36726;BME280;44936;52.086;5.150;2023-11-19T08:13:18;101529.94;;;12.40;100.00
36726;BME280;44936;52.086;5.150;2023-11-19T08:15:44;101538.00;;;12.67;100.00
36726;BME280;44936;52.086;5.150;2023-11-19T08:18:11;101492.25;;;12.45;100.00
36726;BME280;44936;52.086;5.150;2023-11-19T08:20:36;101508.94;;;12.49;100.00
36726;BME280;44936;52.086;5.150;2023-11-19T08:23:02;101501.94;;;12.54;100.00
36726;BME280;44936;52.086;5.150;2023-11-19T08:25:29;101514.22;;;12.52;100.00
36726;BME280;44936;52.086;5.150;2023-11-19T08:27:54;101518.66;;;12.59;100.00
36726;BME280;44936;52.086;5.150;2023-11-19T08:30:19;101544.22;;;12.89;100.00
36726;BME280;44936;52.086;5.150;2023-11-19T08:32:45;101548.66;;;12.95;100.00
36726;BME280;44936;52.086;5.150;2023-11-19T08:35:10;101523.13;;;12.72;100.00
36726;BME280;44936;52.086;5.150;2023-11-19T08:37:36;101523.22;;;13.00;100.00
36726;BME280;44936;52.086;5.150;2023-11-19T08:40:04;101495.00;;;12.68;100.00
36726;BME280;44936;52.086;5.150;2023-11-19T08:42:30;101529.38;;;13.00;100.00
36726;BME280;44936;52.086;5.150;2023-11-19T08:44:55;101523.28;;;13.11;100.00
36726;BME280;44936;52.086;5.150;2023-11-19T08:47:20;101499.56;;;13.08;100.00
36726;BME280;44936;52.086;5.150;2023-11-19T08:49:48;101497.81;;;13.11;100.00
36726;BME280;44936;52.086;5.150;2023-11-19T08:52:15;101555.84;;;13.31;100.00
36726;BME280;44936;52.086;5.150;2023-11-19T08:54:45;101525.03;;;13.10;100.00
36726;BME280;44936;52.086;5.150;2023-11-19T08:57:10;101533.91;;;13.27;100.00
36726;BME280;44936;52.086;5.150;2023-11-19T08:59:36;101516.28;;;13.17;100.00
36726;BME280;44936;52.086;5.150;2023-11-19T09:02:06;101500.44;;;13.11;100.00
36726;BME280;44936;52.086;5.150;2023-11-19T09:04:32;101488.16;;;13.12;100.00
36726;BME280;44936;52.086;5.150;2023-11-19T09:06:58;101533.06;;;13.45;100.00
36726;BME280;44936;52.086;5.150;2023-11-19T09:09:23;101534.84;;;13.57;100.00
36726;BME280;44936;52.086;5.150;2023-11-19T09:11:48;101477.66;;;13.22;100.00
36726;BME280;44936;52.086;5.150;2023-11-19T09:14:14;101480.31;;;13.33;100.00
36726;BME280;44936;52.086;5.150;2023-11-19T09:16:39;101521.63;;;13.48;100.00
36726;BME280;44936;52.086;5.150;2023-11-19T09:19:05;101511.97;;;13.50;100.00
36726;BME280;44936;52.086;5.150;2023-11-19T09:21:30;101517.28;;;13.65;100.00
36726;BME280;44936;52.086;5.150;2023-11-19T09:23:56;101483.84;;;13.43;100.00
36726;BME280;44936;52.086;5.150;2023-11-19T09:26:21;101505.84;;;13.55;100.00
36726;BME280;44936;52.086;5.150;2023-11-19T09:28:49;101518.16;;;13.53;100.00
36726;BME280;44936;52.086;5.150;2023-11-19T09:31:18;101482.97;;;13.51;100.00
36726;BME280;44936;52.086;5.150;2023-11-19T09:33:44;101506.69;;;13.51;100.00
36726;BME280;44936;52.086;5.150;2023-11-19T09:36:12;101497.06;;;13.44;100.00
36726;BME280;44936;52.086;5.150;2023-11-19T09:38:39;101488.25;;;13.36;100.00
36726;BME280;44936;52.086;5.150;2023-11-19T09:41:05;101497.06;;;13.63;100.00
36726;BME280;44936;52.086;5.150;2023-11-19T09:43:33;101477.69;;;13.41;100.00
36726;BME280;44936;52.086;5.150;2023-11-19T09:46:03;101530.47;;;13.96;100.00
36726;BME280;44936;52.086;5.150;2023-11-19T09:48:32;101497.06;;;13.78;100.00
36726;BME280;44936;52.086;5.150;2023-11-19T09:50:59;101502.38;;;13.87;100.00
36726;BME280;44936;52.086;5.150;2023-11-19T09:53:25;101516.41;;;13.92;100.00
36726;BME280;44936;52.086;5.150;2023-11-19T09:55:51;101506.75;;;13.88;100.00
36726;BME280;44936;52.086;5.150;2023-11-19T09:58:18;101515.53;;;13.99;100.00
36726;BME280;44936;52.086;5.150;2023-11-19T10:00:43;101497.94;;;14.20;100.00
36726;BME280;44936;52.086;5.150;2023-11-19T10:03:10;101477.72;;;13.96;100.00
36726;BME280;44936;52.086;5.150;2023-11-19T10:05:37;101458.38;;;13.86;100.00
36726;BME280;44936;52.086;5.150;2023-11-19T10:08:04;101477.75;;;13.89;100.00
36726;BME280;44936;52.086;5.150;2023-11-19T10:10:30;101499.66;;;14.22;100.00
36726;BME280;44936;52.086;5.150;2023-11-19T10:12:56;101456.59;;;14.20;100.00
36726;BME280;44936;52.086;5.150;2023-11-19T10:15:23;101454.84;;;14.11;100.00
36726;BME280;44936;52.086;5.150;2023-11-19T10:17:50;101450.44;;;14.23;100.00
36726;BME280;44936;52.086;5.150;2023-11-19T10:20:16;101460.16;;;14.05;100.00
36726;BME280;44936;52.086;5.150;2023-11-19T10:22:41;101477.69;;;14.20;100.00
36726;BME280;44936;52.086;5.150;2023-11-19T10:25:26;101475.91;;;14.22;100.00
36726;BME280;44936;52.086;5.150;2023-11-19T10:27:52;101478.59;;;14.02;100.00
36726;BME280;44936;52.086;5.150;2023-11-19T10:30:22;101475.97;;;13.99;100.00
36726;BME280;44936;52.086;5.150;2023-11-19T10:33:14;101473.31;;;14.13;100.00
36726;BME280;44936;52.086;5.150;2023-11-19T10:36:02;101467.16;;;14.17;100.00
36726;BME280;44936;52.086;5.150;2023-11-19T10:38:28;101423.22;;;13.85;100.00
36726;BME280;44936;52.086;5.150;2023-11-19T10:40:54;101454.81;;;14.28;100.00
36726;BME280;44936;52.086;5.150;2023-11-19T10:43:23;101456.56;;;14.51;100.00
36726;BME280;44936;52.086;5.150;2023-11-19T10:45:49;101445.06;;;14.68;100.00
36726;BME280;44936;52.086;5.150;2023-11-19T10:48:14;101471.44;;;14.65;100.00
36726;BME280;44936;52.086;5.150;2023-11-19T10:50:41;101432.84;;;14.20;100.00
36726;BME280;44936;52.086;5.150;2023-11-19T10:53:08;101417.03;;;14.17;100.00
36726;BME280;44936;52.086;5.150;2023-11-19T10:55:37;101467.09;;;14.38;100.00
36726;BME280;44936;52.086;5.150;2023-11-19T10:58:07;101428.47;;;14.16;100.00
36726;BME280;44936;52.086;5.150;2023-11-19T11:00:45;101422.31;;;14.15;100.00
36726;BME280;44936;52.086;5.150;2023-11-19T11:03:20;101471.47;;;14.61;100.00
36726;BME280;44936;52.086;5.150;2023-11-19T11:05:48;101466.22;;;14.52;100.00
36726;BME280;44936;52.086;5.150;2023-11-19T11:08:14;101447.75;;;14.47;100.00
36726;BME280;44936;52.086;5.150;2023-11-19T11:10:44;101467.09;;;14.44;100.00
36726;BME280;44936;52.086;5.150;2023-11-19T11:13:11;101440.72;;;14.43;100.00
36726;BME280;44936;52.086;5.150;2023-11-19T11:15:37;101446.88;;;14.51;100.00
36726;BME280;44936;52.086;5.150;2023-11-19T11:18:03;101461.75;;;14.72;100.00
36726;BME280;44936;52.086;5.150;2023-11-19T11:20:32;101437.06;;;14.79;100.00
36726;BME280;44936;52.086;5.150;2023-11-19T11:28:58;101437.13;;;14.67;100.00
36726;BME280;44936;52.086;5.150;2023-11-19T11:31:36;101442.44;;;14.55;100.00
36726;BME280;44936;52.086;5.150;2023-11-19T11:36:42;101466.22;;;14.45;100.00
36726;BME280;44936;52.086;5.150;2023-11-19T11:39:12;101461.81;;;14.54;100.00
36726;BME280;44936;52.086;5.150;2023-11-19T11:41:38;101454.78;;;14.43;100.00
36726;BME280;44936;52.086;5.150;2023-11-19T11:44:03;101446.88;;;14.40;100.00
36726;BME280;44936;52.086;5.150;2023-11-19T11:48:59;101438.97;;;14.40;100.00
36726;BME280;44936;52.086;5.150;2023-11-19T11:54:14;101438.09;;;14.35;100.00
36726;BME280;44936;52.086;5.150;2023-11-19T11:57:06;101445.13;;;14.45;100.00
36726;BME280;44936;52.086;5.150;2023-11-19T12:02:11;101406.38;;;14.44;100.00
36726;BME280;44936;52.086;5.150;2023-11-19T12:04:39;101401.09;;;14.58;100.00
36726;BME280;44936;52.086;5.150;2023-11-19T12:07:16;101422.19;;;14.63;100.00
36726;BME280;44936;52.086;5.150;2023-11-19T12:09:42;101421.22;;;14.79;100.00
36726;BME280;44936;52.086;5.150;2023-11-19T12:19:59;101375.59;;;14.43;100.00
36726;BME280;44936;52.086;5.150;2023-11-19T12:22:25;101390.56;;;14.41;100.00
36726;BME280;44936;52.086;5.150;2023-11-19T12:24:51;101403.75;;;14.54;100.00
36726;BME280;44936;52.086;5.150;2023-11-19T12:27:17;101430.97;;;14.69;100.00
36726;BME280;44936;52.086;5.150;2023-11-19T12:29:43;101379.97;;;14.57;100.00
36726;BME280;44936;52.086;5.150;2023-11-19T12:32:09;101405.44;;;14.65;100.00
36726;BME280;44936;52.086;5.150;2023-11-19T12:34:35;101416.09;;;14.41;100.00
36726;BME280;44936;52.086;5.150;2023-11-19T12:37:05;101397.59;;;14.44;100.00
36726;BME280;44936;52.086;5.150;2023-11-19T12:39:31;101396.72;;;14.53;100.00
36726;BME280;44936;52.086;5.150;2023-11-19T12:42:01;101431.81;;;14.76;100.00
36726;BME280;44936;52.086;5.150;2023-11-19T12:44:29;101418.72;;;14.47;100.00
36726;BME280;44936;52.086;5.150;2023-11-19T12:47:06;101419.59;;;14.48;100.00
36726;BME280;44936;52.086;5.150;2023-11-19T12:49:32;101358.91;;;14.31;100.00
36726;BME280;44936;52.086;5.150;2023-11-19T12:51:58;101386.13;;;14.54;100.00
36726;BME280;44936;52.086;5.150;2023-11-19T12:54:37;101421.28;;;14.70;100.00
36726;BME280;44936;52.086;5.150;2023-11-19T12:57:03;101399.25;;;14.66;100.00
36726;BME280;44936;52.086;5.150;2023-11-19T12:59:30;101364.16;;;14.51;100.00
36726;BME280;44936;52.086;5.150;2023-11-19T13:04:22;101431.91;;;14.50;100.00
36726;BME280;44936;52.086;5.150;2023-11-19T13:06:47;101430.09;;;14.63;100.00